Aeroporto :
LOGIN :

Iscrizione | Disclaimer

   EN    FR    IT 

 










Sommario :    VFR   VFR Marginale   IFR   IFR Intensivo   IFR Molto Intensivo
Visibilità : 
Base nubi : 
>= 8 km
>= 3000ft
5 / 8 km
1000 / 3000 ft
1500m / 5 km
500 / 1000 ft
800 / 1500m
200 / 500 ft
< 800m
< 200 ft
Simboli :   Temporali  Nebbia  Neve Forte  Precipitazioni Forti  Vento > 20 kt
SIGMETs :   Varie  Temporali  Ghiacco  Turbolenza  Onda orograficha  Ceneri Vulcaniche






- Altitudine del aeroporto : 289 ft


LIRG - Guidonia

ULTIMO METAR :
  • 091355Z 24008KT CAVOK 22/06 Q1020 RMK SKC MON NE LIB NC VIS MIN 9999 BLU

METARs OBSOLETI :
  • 091255Z VRB05KT CAVOK 22/04 Q1021 RMK SKC MON NE LIB NC VIS MIN 9999 BLU
  • 091155Z 22008KT 170V270 CAVOK 21/06 Q1021 RMK SKC MON NE LIB NC VIS MIN 9999 BLU

TAF TAF LIRG
Valido dal 09 a 12 ore il 09 a 21 ore UTC


091100Z 0912/0921 26008KT CAVOK
BECMG 0918/0920 VRB03KT



MetMap, La meteo Aeronautica in un colpo d'occhio ! - Copyright ORBIFLY Dicembre 2007 - Disclaimer

ORBIFLY MET'MAP TEAM :

Programmazione e sviluppo : Alexandra Zaïnal
Concezione : Baudouin d'Aumeries
Aiuto per la programmazione : Marc-Olivier Méhu
Supporto tecnico e logistico : Manuel Goepfert
Aiuto per la traduzione : Arnaldo La Scala

Contatto : metmap@orbifly.com




FONTI E CREDITI :

   NOAA